createdAt,value
2022-10-04T00:02:14.788Z,61.74
2022-10-04T00:04:40.719Z,61.83
2022-10-04T00:07:06.869Z,62.37
2022-10-04T00:09:32.803Z,61.01
2022-10-04T00:11:58.736Z,60.78
2022-10-04T00:14:24.691Z,60.94
2022-10-04T00:16:50.675Z,61.24
2022-10-04T00:19:16.609Z,60.79
2022-10-04T00:21:42.747Z,60.99
2022-10-04T00:24:09.774Z,61.55
2022-10-04T00:26:35.685Z,61.60
2022-10-04T00:29:01.655Z,61.93
2022-10-04T00:31:27.636Z,62.12
2022-10-04T00:33:53.637Z,62.52
2022-10-04T00:36:19.558Z,62.36
2022-10-04T00:38:45.482Z,62.25
2022-10-04T00:41:12.062Z,61.38
2022-10-04T00:43:38.012Z,61.50
2022-10-04T00:46:03.946Z,61.08
2022-10-04T00:48:31.563Z,61.72
2022-10-04T00:50:57.751Z,61.96
2022-10-04T00:53:24.303Z,61.73
2022-10-04T00:55:50.228Z,61.15
2022-10-04T00:58:16.142Z,60.99
2022-10-04T01:00:42.520Z,60.91
2022-10-04T01:03:08.484Z,60.86
2022-10-04T01:05:35.041Z,60.75
2022-10-04T01:08:00.973Z,60.83
2022-10-04T01:10:27.470Z,61.68
2022-10-04T01:12:53.390Z,61.39
2022-10-04T01:15:19.327Z,62.47
2022-10-04T01:17:47.258Z,62.04
2022-10-04T01:20:13.201Z,61.98
2022-10-04T01:22:39.124Z,62.53
2022-10-04T01:25:05.355Z,62.40
2022-10-04T01:27:32.794Z,61.39
2022-10-04T01:29:59.045Z,61.71
2022-10-04T01:32:25.618Z,61.75
2022-10-04T01:34:51.883Z,61.66
2022-10-04T01:37:17.946Z,61.60
2022-10-04T03:16:04.428Z,62.63
2022-10-04T03:18:30.417Z,63.52
2022-10-04T03:20:56.345Z,63.93
2022-10-04T03:23:22.285Z,63.63
2022-10-04T03:25:48.186Z,63.78
2022-10-04T03:28:14.957Z,64.88
2022-10-04T03:30:41.791Z,64.62
2022-10-04T03:33:08.400Z,64.40
2022-10-04T03:35:34.321Z,63.53
2022-10-04T03:38:00.241Z,62.96
2022-10-04T03:40:27.100Z,63.45
2022-10-04T03:42:53.674Z,62.17
2022-10-04T03:45:19.605Z,62.41
2022-10-04T03:47:45.500Z,62.60
2022-10-04T03:50:11.736Z,62.65
2022-10-04T03:52:37.658Z,63.01
2022-10-04T03:55:03.588Z,62.87
2022-10-04T03:57:29.511Z,63.07
2022-10-04T03:59:56.239Z,63.78
2022-10-04T04:02:22.242Z,63.39
2022-10-04T04:04:48.878Z,63.58
2022-10-04T04:07:14.824Z,63.78
2022-10-04T04:09:40.745Z,63.29
2022-10-04T04:12:06.663Z,63.73
2022-10-04T04:14:33.362Z,64.14
2022-10-04T04:16:59.512Z,64.20
2022-10-04T04:19:26.227Z,63.91
2022-10-04T04:21:52.427Z,63.78
2022-10-04T04:24:19.143Z,64.60
2022-10-04T04:26:45.037Z,63.65
2022-10-04T04:29:11.793Z,63.91
2022-10-04T04:31:37.779Z,64.16
2022-10-04T04:34:03.728Z,63.67
2022-10-04T04:36:29.695Z,64.03
2022-10-04T04:38:55.613Z,63.48
2022-10-04T04:41:21.542Z,63.83
2022-10-04T04:43:48.429Z,64.04
2022-10-04T04:46:29.456Z,64.22
2022-10-04T04:48:55.467Z,64.02
2022-10-04T04:51:21.429Z,64.58
2022-10-04T04:53:47.427Z,65.60
2022-10-04T04:56:17.407Z,65.04
2022-10-04T04:58:44.003Z,65.16
2022-10-04T05:01:09.968Z,64.47
2022-10-04T05:03:35.892Z,64.55
2022-10-04T05:06:01.821Z,64.92
2022-10-04T05:08:27.747Z,64.61
2022-10-04T05:10:56.600Z,64.71
2022-10-04T05:13:23.270Z,64.88
2022-10-04T05:15:49.193Z,65.08
2022-10-04T05:18:15.086Z,64.54
2022-10-04T05:20:40.988Z,64.97
2022-10-04T05:23:07.158Z,64.72
2022-10-04T05:25:33.763Z,64.25
2022-10-04T05:27:59.744Z,63.44
2022-10-04T05:30:26.446Z,63.19
2022-10-04T05:32:52.394Z,62.94
2022-10-04T05:35:18.337Z,62.64
2022-10-04T05:37:44.258Z,62.55
2022-10-04T05:40:11.073Z,62.37
2022-10-04T05:42:36.984Z,62.08
2022-10-04T05:45:03.080Z,62.48
2022-10-04T05:47:29.078Z,62.42
2022-10-04T05:49:54.984Z,62.86
2022-10-04T05:52:21.104Z,62.72
2022-10-04T05:54:47.298Z,63.58
2022-10-04T05:57:13.483Z,63.28
2022-10-04T05:59:39.765Z,63.22
2022-10-04T06:02:07.376Z,64.79
2022-10-04T06:04:33.616Z,64.18
2022-10-04T06:06:59.827Z,64.33
2022-10-04T08:14:22.458Z,54.59
2022-10-04T08:16:48.356Z,54.87
2022-10-04T08:19:15.198Z,53.93
2022-10-04T08:21:41.113Z,54.37
2022-10-04T08:24:07.004Z,53.67
2022-10-04T08:26:32.931Z,53.22
2022-10-04T08:28:58.877Z,52.52
2022-10-04T08:31:24.893Z,52.17
2022-10-04T08:33:50.947Z,52.80
2022-10-04T08:36:16.867Z,51.95
2022-10-04T08:38:43.693Z,52.94
2022-10-04T08:41:09.606Z,51.06
2022-10-04T08:43:36.409Z,51.65
2022-10-04T08:46:02.346Z,51.33
2022-10-04T08:48:28.384Z,51.36
2022-10-04T08:50:56.853Z,50.51
2022-10-04T08:53:22.799Z,50.01
2022-10-04T08:55:48.703Z,49.83
2022-10-04T08:58:14.617Z,49.06
2022-10-04T09:00:40.603Z,48.99
2022-10-04T09:03:07.197Z,47.46
2022-10-04T09:05:33.180Z,47.13
2022-10-04T09:07:59.769Z,46.96
2022-10-04T09:10:25.666Z,46.74
2022-10-04T09:12:51.597Z,45.65
2022-10-04T09:15:18.280Z,45.86
2022-10-04T09:17:44.809Z,46.64
2022-10-04T09:20:36.766Z,45.49
2022-10-04T09:22:56.630Z,44.95
2022-10-04T09:25:22.553Z,45.18
2022-10-04T09:27:56.348Z,45.30
2022-10-04T09:30:22.393Z,43.22
2022-10-04T09:32:48.312Z,45.27
2022-10-04T09:35:14.232Z,45.72
2022-10-04T09:37:40.162Z,44.05
2022-10-04T09:40:06.521Z,45.49
2022-10-04T09:42:32.447Z,45.60
2022-10-04T09:44:58.405Z,46.39
2022-10-04T09:47:24.970Z,43.69
2022-10-04T09:49:50.943Z,43.71
2022-10-04T09:52:16.847Z,41.77
2022-10-04T09:54:44.502Z,41.23
2022-10-04T09:57:10.488Z,41.62
2022-10-04T09:59:36.409Z,39.68
2022-10-04T10:02:03.308Z,39.85
2022-10-04T10:04:29.241Z,41.07
2022-10-04T10:06:55.228Z,40.78
2022-10-04T10:09:21.405Z,38.44
2022-10-04T10:11:47.329Z,38.69
2022-10-04T10:14:13.301Z,38.92
2022-10-04T10:16:39.239Z,40.66
2022-10-04T10:19:05.271Z,38.54
2022-10-04T10:21:31.218Z,38.94
2022-10-04T10:23:57.172Z,38.49
2022-10-04T10:26:23.961Z,37.39
2022-10-04T10:28:49.893Z,38.01
2022-10-04T10:31:16.610Z,38.88
2022-10-04T10:33:42.575Z,38.67
2022-10-04T10:36:08.497Z,37.72
2022-10-04T10:38:35.334Z,36.79
2022-10-04T10:41:02.808Z,36.41
2022-10-04T10:43:28.994Z,38.20
2022-10-04T10:45:55.242Z,37.44
2022-10-04T10:48:21.428Z,36.79
2022-10-04T10:50:49.009Z,37.30
2022-10-04T10:53:16.414Z,38.08
2022-10-04T10:55:42.723Z,36.60
2022-10-04T10:58:08.941Z,36.06
2022-10-04T11:00:35.139Z,34.90
2022-10-04T11:03:12.657Z,36.24
2022-10-04T11:05:39.509Z,36.04
2022-10-04T13:15:06.953Z,33.45
2022-10-04T13:17:36.212Z,32.63
2022-10-04T13:20:03.398Z,32.13
2022-10-04T13:22:54.919Z,31.58
2022-10-04T13:25:15.262Z,31.20
2022-10-04T13:27:41.176Z,30.58
2022-10-04T13:30:07.127Z,31.66
2022-10-04T13:32:33.026Z,31.90
2022-10-04T13:34:59.017Z,33.45
2022-10-04T13:37:24.979Z,34.48
2022-10-04T13:39:51.112Z,35.31
2022-10-04T13:42:17.041Z,35.42
2022-10-04T13:44:43.654Z,36.29
2022-10-04T13:47:09.581Z,34.21
2022-10-04T13:49:35.526Z,32.87
2022-10-04T13:52:01.476Z,34.29
2022-10-04T13:54:28.227Z,34.33
2022-10-04T13:56:54.184Z,35.05
2022-10-04T13:59:20.824Z,33.79
2022-10-04T14:01:47.147Z,33.88
2022-10-04T14:04:13.287Z,34.66
2022-10-04T14:06:39.196Z,34.43
2022-10-04T14:09:05.096Z,33.21
2022-10-04T14:11:31.917Z,32.79
2022-10-04T14:13:57.829Z,33.97
2022-10-04T14:16:23.832Z,32.61
2022-10-04T14:18:49.772Z,34.04
2022-10-04T14:21:19.370Z,31.86
2022-10-04T14:23:46.539Z,34.46
2022-10-04T14:26:12.489Z,34.51
2022-10-04T14:28:38.601Z,34.62
2022-10-04T14:31:04.609Z,34.59
2022-10-04T14:33:30.540Z,34.62
2022-10-04T14:35:56.452Z,33.26
2022-10-04T14:38:26.642Z,32.49
2022-10-04T14:40:52.854Z,33.87
2022-10-04T14:43:18.788Z,33.67
2022-10-04T14:45:44.770Z,33.55
2022-10-04T14:48:11.371Z,33.72
2022-10-04T14:50:37.369Z,33.46
2022-10-04T14:53:03.282Z,33.46
2022-10-04T14:55:30.173Z,34.29
2022-10-04T14:57:56.124Z,34.44
2022-10-04T15:00:22.800Z,34.82
2022-10-04T15:02:49.604Z,35.29
2022-10-04T15:05:15.541Z,35.52
2022-10-04T15:07:41.960Z,34.61
2022-10-04T15:10:08.285Z,35.60
2022-10-04T15:12:58.568Z,35.03
2022-10-04T15:15:20.178Z,34.97
2022-10-04T15:17:46.207Z,36.12
2022-10-04T15:20:12.558Z,35.95
2022-10-04T15:22:38.588Z,35.08
2022-10-04T15:25:04.687Z,35.73
2022-10-04T15:27:30.694Z,36.36
2022-10-04T15:29:57.459Z,35.92
2022-10-04T15:32:23.831Z,35.64
2022-10-04T15:34:49.808Z,35.42
2022-10-04T15:37:16.011Z,36.07
2022-10-04T15:39:41.952Z,36.96
2022-10-04T15:42:07.921Z,38.08
2022-10-04T15:44:33.918Z,38.52
2022-10-04T15:46:59.854Z,39.51
2022-10-04T15:49:25.835Z,40.35
2022-10-04T15:51:51.835Z,40.31
2022-10-04T15:54:18.108Z,40.15
2022-10-04T15:56:44.582Z,40.86
2022-10-04T15:59:12.533Z,41.78
2022-10-04T16:01:39.130Z,41.54
2022-10-04T16:04:09.902Z,42.13
2022-10-04T16:06:36.431Z,42.20
2022-10-04T16:09:02.448Z,42.94
2022-10-04T18:06:18.753Z,54.57
2022-10-04T18:08:44.800Z,54.84
2022-10-04T18:11:10.708Z,54.56
2022-10-04T18:13:38.927Z,55.01
2022-10-04T18:16:04.930Z,54.33
2022-10-04T18:18:31.662Z,54.53
2022-10-04T18:20:57.589Z,54.31
2022-10-04T18:23:23.512Z,54.75
2022-10-04T18:25:49.451Z,54.93
2022-10-04T18:28:15.442Z,55.27
2022-10-04T18:30:41.377Z,54.74
2022-10-04T18:33:07.644Z,54.77
2022-10-04T18:35:33.580Z,54.71
2022-10-04T18:37:59.518Z,54.63
2022-10-04T18:40:25.514Z,54.59
2022-10-04T18:42:51.455Z,54.89
2022-10-04T18:45:18.237Z,56.03
2022-10-04T18:47:44.180Z,55.63
2022-10-04T18:50:10.132Z,55.58
2022-10-04T18:52:36.066Z,55.78
2022-10-04T18:55:02.018Z,55.90
2022-10-04T18:57:27.959Z,55.96
2022-10-04T18:59:53.907Z,56.32
2022-10-04T19:02:19.896Z,56.35
2022-10-04T19:04:46.483Z,56.91
2022-10-04T19:07:12.417Z,56.38
2022-10-04T19:09:38.375Z,56.58
2022-10-04T19:12:04.304Z,56.50
2022-10-04T19:14:30.250Z,56.87
2022-10-04T19:16:56.160Z,56.75
2022-10-04T19:19:22.163Z,56.59
2022-10-04T19:21:48.090Z,56.56
2022-10-04T19:24:14.019Z,56.97
2022-10-04T19:26:39.951Z,57.18
2022-10-04T19:29:05.862Z,56.41
2022-10-04T19:31:31.872Z,56.96
2022-10-04T19:33:57.829Z,57.31
2022-10-04T19:36:23.769Z,56.88
2022-10-04T19:38:49.671Z,56.91
2022-10-04T19:41:16.332Z,57.52
2022-10-04T19:43:42.989Z,57.59
2022-10-04T19:46:08.951Z,57.13
2022-10-04T19:48:35.235Z,57.43
2022-10-04T19:51:01.591Z,57.79
2022-10-04T19:53:27.530Z,57.47
2022-10-04T19:55:53.465Z,57.64
2022-10-04T19:58:20.398Z,57.91
2022-10-04T20:00:46.356Z,58.36
2022-10-04T20:03:12.353Z,58.48
2022-10-04T20:05:38.276Z,58.38
2022-10-04T20:08:04.179Z,58.69
2022-10-04T20:10:30.525Z,58.42
2022-10-04T20:12:56.461Z,59.21
2022-10-04T20:15:27.331Z,59.34
2022-10-04T20:17:53.616Z,58.81
2022-10-04T20:20:19.518Z,58.79
2022-10-04T20:22:46.138Z,59.16
2022-10-04T20:25:12.614Z,59.35
2022-10-04T20:27:38.542Z,60.05
2022-10-04T20:30:04.771Z,59.63
2022-10-04T20:32:31.442Z,59.75
2022-10-04T20:34:57.391Z,59.64
2022-10-04T20:37:23.314Z,59.62
2022-10-04T20:39:52.219Z,59.63
2022-10-04T20:42:21.768Z,59.53
2022-10-04T20:44:48.015Z,59.37
2022-10-04T20:47:14.243Z,60.04
2022-10-04T20:49:40.429Z,60.95
2022-10-04T20:52:07.848Z,61.23
2022-10-04T20:54:34.054Z,61.49
2022-10-04T20:57:01.367Z,61.72
2022-10-04T20:59:27.402Z,61.45
2022-10-04T22:50:33.840Z,63.05
2022-10-04T22:52:59.784Z,63.61
2022-10-04T22:55:25.689Z,63.22
2022-10-04T22:57:51.780Z,62.75
2022-10-04T23:00:17.694Z,62.68
2022-10-04T23:02:43.715Z,62.59
2022-10-04T23:05:09.733Z,62.39
2022-10-04T23:07:38.394Z,62.57
2022-10-04T23:10:04.757Z,62.70
2022-10-04T23:12:30.663Z,62.80
2022-10-04T23:14:56.639Z,63.05
2022-10-04T23:17:23.271Z,63.17
2022-10-04T23:19:49.210Z,63.04
2022-10-04T23:22:15.915Z,63.09
2022-10-04T23:24:41.844Z,63.06
2022-10-04T23:27:07.808Z,63.04
2022-10-04T23:29:33.773Z,63.62
2022-10-04T23:31:59.940Z,63.28
2022-10-04T23:34:26.090Z,63.17
2022-10-04T23:36:52.010Z,63.34
2022-10-04T23:39:17.979Z,63.11
2022-10-04T23:41:44.596Z,62.69
2022-10-04T23:44:10.843Z,62.64
2022-10-04T23:46:36.755Z,62.59
2022-10-04T23:49:02.686Z,62.93
2022-10-04T23:51:28.640Z,62.80
2022-10-04T23:53:54.574Z,62.83
2022-10-04T23:56:20.526Z,62.97
2022-10-04T23:58:46.455Z,62.86
